Terminal Aerodrome Forecast
Issued by NWS Little Rock, AR

Home | Current Version | Previous Version | Text Only | Print | Product List | Glossary On
Versions: 1 2 3 4 5 6 7 8 9 10 11 12 13 14 15 16 17 18 19 20 21 22 23 24 25 26 27 28 29 30 31 32 33 34 35 36 37 38 39 40 41 42 43 44 45 46 47 48 49 50
000
FTUS44 KLZK 260540
TAFLIT
TAF
KLIT 260540Z 2606/2706 07006KT P6SM SCT025 OVC050
      TEMPO 2606/2610 5SM -DZ BR OVC025
     FM261000 05006KT 6SM -DZ SCT015 OVC030
      TEMPO 2610/2614 4SM -DZ BR OVC015
     FM262200 03010KT P6SM VCSH OVC030 PROB30 2622/2704 4SM -RA BR
      OVC015=

USA.gov is the U.S. government's official web portal to all federal, state and local government web resources and services.